sensor_id;sensor_type;location;lat;lon;timestamp;temperature;humidity
35678;DHT22;21791;42.828;74.582;2022-12-11T00:01:45;-13.50;99.90
35678;DHT22;21791;42.828;74.582;2022-12-11T00:04:12;-13.60;99.90
35678;DHT22;21791;42.828;74.582;2022-12-11T00:06:39;-13.60;99.90
35678;DHT22;21791;42.828;74.582;2022-12-11T00:09:05;-13.70;99.90
35678;DHT22;21791;42.828;74.582;2022-12-11T00:11:32;-13.70;99.90
35678;DHT22;21791;42.828;74.582;2022-12-11T00:13:59;-13.80;99.90
35678;DHT22;21791;42.828;74.582;2022-12-11T00:16:25;-13.80;99.90
35678;DHT22;21791;42.828;74.582;2022-12-11T00:18:52;-13.70;99.90
35678;DHT22;21791;42.828;74.582;2022-12-11T00:21:18;-13.50;99.90
35678;DHT22;21791;42.828;74.582;2022-12-11T00:23:44;-13.40;99.90
35678;DHT22;21791;42.828;74.582;2022-12-11T00:26:15;-13.10;99.90
35678;DHT22;21791;42.828;74.582;2022-12-11T00:28:42;-13.00;99.90
35678;DHT22;21791;42.828;74.582;2022-12-11T00:31:13;-13.00;99.90
35678;DHT22;21791;42.828;74.582;2022-12-11T00:33:42;-12.80;99.90
35678;DHT22;21791;42.828;74.582;2022-12-11T00:36:16;-12.70;99.90
35678;DHT22;21791;42.828;74.582;2022-12-11T00:38:42;-12.80;99.90
35678;DHT22;21791;42.828;74.582;2022-12-11T00:41:10;-12.90;99.90
35678;DHT22;21791;42.828;74.582;2022-12-11T00:43:37;-13.10;99.90
35678;DHT22;21791;42.828;74.582;2022-12-11T00:46:04;-13.10;99.90
35678;DHT22;21791;42.828;74.582;2022-12-11T00:48:30;-13.20;99.90
35678;DHT22;21791;42.828;74.582;2022-12-11T00:50:57;-13.30;99.90
35678;DHT22;21791;42.828;74.582;2022-12-11T00:53:23;-13.20;99.90
35678;DHT22;21791;42.828;74.582;2022-12-11T00:55:50;-13.30;99.90
35678;DHT22;21791;42.828;74.582;2022-12-11T00:58:16;-13.20;99.90
35678;DHT22;21791;42.828;74.582;2022-12-11T01:00:43;-13.00;99.90
35678;DHT22;21791;42.828;74.582;2022-12-11T01:03:12;-12.80;99.90
35678;DHT22;21791;42.828;74.582;2022-12-11T01:05:40;-12.70;99.90
35678;DHT22;21791;42.828;74.582;2022-12-11T01:08:06;-12.80;99.90
35678;DHT22;21791;42.828;74.582;2022-12-11T01:10:33;-13.10;99.90
35678;DHT22;21791;42.828;74.582;2022-12-11T01:13:03;-13.20;99.90
35678;DHT22;21791;42.828;74.582;2022-12-11T01:15:32;-13.20;99.90
35678;DHT22;21791;42.828;74.582;2022-12-11T01:17:59;-13.30;99.90
35678;DHT22;21791;42.828;74.582;2022-12-11T01:20:27;-13.00;99.90
35678;DHT22;21791;42.828;74.582;2022-12-11T01:22:55;-13.20;99.90
35678;DHT22;21791;42.828;74.582;2022-12-11T01:25:22;-13.20;99.90
35678;DHT22;21791;42.828;74.582;2022-12-11T01:27:51;-13.50;99.90
35678;DHT22;21791;42.828;74.582;2022-12-11T01:30:18;-13.50;99.90
35678;DHT22;21791;42.828;74.582;2022-12-11T01:32:45;-13.40;99.90
35678;DHT22;21791;42.828;74.582;2022-12-11T01:35:12;-13.40;99.90
35678;DHT22;21791;42.828;74.582;2022-12-11T01:37:39;-13.50;99.90
35678;DHT22;21791;42.828;74.582;2022-12-11T01:40:07;-13.50;99.90
35678;DHT22;21791;42.828;74.582;2022-12-11T01:42:34;-13.60;99.90
35678;DHT22;21791;42.828;74.582;2022-12-11T01:48:08;-13.30;99.90
35678;DHT22;21791;42.828;74.582;2022-12-11T01:50:40;-13.50;99.90
35678;DHT22;21791;42.828;74.582;2022-12-11T01:53:10;-13.70;99.90
35678;DHT22;21791;42.828;74.582;2022-12-11T01:55:38;-13.90;99.90
35678;DHT22;21791;42.828;74.582;2022-12-11T01:58:06;-13.90;99.90
35678;DHT22;21791;42.828;74.582;2022-12-11T02:00:33;-14.10;99.90
35678;DHT22;21791;42.828;74.582;2022-12-11T02:03:00;-14.10;99.90
35678;DHT22;21791;42.828;74.582;2022-12-11T02:05:27;-14.20;99.90
35678;DHT22;21791;42.828;74.582;2022-12-11T02:07:55;-14.10;99.90
35678;DHT22;21791;42.828;74.582;2022-12-11T02:16:08;-14.20;99.90
35678;DHT22;21791;42.828;74.582;2022-12-11T02:18:47;-14.10;99.90
35678;DHT22;21791;42.828;74.582;2022-12-11T02:21:25;-14.10;99.90
35678;DHT22;21791;42.828;74.582;2022-12-11T02:30:12;-13.80;99.90
35678;DHT22;21791;42.828;74.582;2022-12-11T02:32:57;-13.40;99.90
35678;DHT22;21791;42.828;74.582;2022-12-11T02:35:41;-13.20;99.90
35678;DHT22;21791;42.828;74.582;2022-12-11T02:38:16;-13.20;99.90
35678;DHT22;21791;42.828;74.582;2022-12-11T02:40:43;-13.30;99.90
35678;DHT22;21791;42.828;74.582;2022-12-11T02:43:15;-13.30;99.90
35678;DHT22;21791;42.828;74.582;2022-12-11T02:45:43;-13.20;99.90
35678;DHT22;21791;42.828;74.582;2022-12-11T02:48:11;-13.40;99.90
35678;DHT22;21791;42.828;74.582;2022-12-11T02:50:43;-13.20;99.90
35678;DHT22;21791;42.828;74.582;2022-12-11T02:53:18;-13.40;99.90
35678;DHT22;21791;42.828;74.582;2022-12-11T02:55:49;-13.30;99.90
35678;DHT22;21791;42.828;74.582;2022-12-11T02:58:31;-13.30;99.90
35678;DHT22;21791;42.828;74.582;2022-12-11T03:00:58;-13.30;99.90
35678;DHT22;21791;42.828;74.582;2022-12-11T03:03:24;-13.10;99.90
35678;DHT22;21791;42.828;74.582;2022-12-11T03:05:52;-13.00;99.90
35678;DHT22;21791;42.828;74.582;2022-12-11T03:08:19;-12.90;99.90
35678;DHT22;21791;42.828;74.582;2022-12-11T03:10:45;-12.80;99.90
35678;DHT22;21791;42.828;74.582;2022-12-11T03:13:13;-12.80;99.90
35678;DHT22;21791;42.828;74.582;2022-12-11T03:16:03;-12.70;99.90
35678;DHT22;21791;42.828;74.582;2022-12-11T03:21:33;-12.50;99.90
35678;DHT22;21791;42.828;74.582;2022-12-11T03:26:44;-11.40;99.90
35678;DHT22;21791;42.828;74.582;2022-12-11T03:29:19;-11.10;99.90
35678;DHT22;21791;42.828;74.582;2022-12-11T03:31:57;-11.00;99.90
35678;DHT22;21791;42.828;74.582;2022-12-11T03:34:37;-10.90;99.90
35678;DHT22;21791;42.828;74.582;2022-12-11T03:37:08;-10.00;99.90
35678;DHT22;21791;42.828;74.582;2022-12-11T03:39:38;-8.80;99.90
35678;DHT22;21791;42.828;74.582;2022-12-11T03:42:09;-7.70;99.90
35678;DHT22;21791;42.828;74.582;2022-12-11T03:44:37;-6.80;99.90
35678;DHT22;21791;42.828;74.582;2022-12-11T03:47:06;-6.30;99.90
35678;DHT22;21791;42.828;74.582;2022-12-11T03:49:36;-5.60;96.20
35678;DHT22;21791;42.828;74.582;2022-12-11T03:52:04;-5.30;91.80
35678;DHT22;21791;42.828;74.582;2022-12-11T03:54:33;-4.50;90.80
35678;DHT22;21791;42.828;74.582;2022-12-11T03:57:02;-3.70;90.50
35678;DHT22;21791;42.828;74.582;2022-12-11T03:59:29;-3.00;83.30
35678;DHT22;21791;42.828;74.582;2022-12-11T04:01:55;-3.10;77.50
35678;DHT22;21791;42.828;74.582;2022-12-11T04:04:22;-2.70;77.00
35678;DHT22;21791;42.828;74.582;2022-12-11T04:06:48;-2.80;71.20
35678;DHT22;21791;42.828;74.582;2022-12-11T04:09:15;-2.40;70.90
35678;DHT22;21791;42.828;74.582;2022-12-11T04:11:42;-2.10;67.10
35678;DHT22;21791;42.828;74.582;2022-12-11T04:14:11;-1.70;65.40
35678;DHT22;21791;42.828;74.582;2022-12-11T04:16:57;-1.70;63.90
35678;DHT22;21791;42.828;74.582;2022-12-11T04:19:25;-2.00;64.40
35678;DHT22;21791;42.828;74.582;2022-12-11T04:22:15;-2.40;63.30
35678;DHT22;21791;42.828;74.582;2022-12-11T04:25:01;-3.10;66.70
35678;DHT22;21791;42.828;74.582;2022-12-11T04:27:28;-2.20;69.40
35678;DHT22;21791;42.828;74.582;2022-12-11T04:30:20;-2.10;68.60
35678;DHT22;21791;42.828;74.582;2022-12-11T04:32:47;-3.40;70.40
35678;DHT22;21791;42.828;74.582;2022-12-11T04:35:14;-2.80;74.60
35678;DHT22;21791;42.828;74.582;2022-12-11T04:37:41;-2.40;73.10
35678;DHT22;21791;42.828;74.582;2022-12-11T04:40:11;-2.50;71.80
35678;DHT22;21791;42.828;74.582;2022-12-11T04:42:38;-1.40;72.70
35678;DHT22;21791;42.828;74.582;2022-12-11T04:45:06;-0.70;71.80
35678;DHT22;21791;42.828;74.582;2022-12-11T04:47:37;0.40;69.60
35678;DHT22;21791;42.828;74.582;2022-12-11T04:50:06;-0.70;66.80
35678;DHT22;21791;42.828;74.582;2022-12-11T04:52:33;0.10;68.10
35678;DHT22;21791;42.828;74.582;2022-12-11T04:54:59;-0.50;66.60
35678;DHT22;21791;42.828;74.582;2022-12-11T04:57:26;0.30;67.00
35678;DHT22;21791;42.828;74.582;2022-12-11T04:59:52;-0.20;63.50
35678;DHT22;21791;42.828;74.582;2022-12-11T05:02:18;-0.40;64.00
35678;DHT22;21791;42.828;74.582;2022-12-11T05:04:48;0.40;67.30
35678;DHT22;21791;42.828;74.582;2022-12-11T05:07:14;1.00;65.50
35678;DHT22;21791;42.828;74.582;2022-12-11T05:09:41;1.00;62.90
35678;DHT22;21791;42.828;74.582;2022-12-11T05:12:07;-0.20;62.70
35678;DHT22;21791;42.828;74.582;2022-12-11T05:14:34;-1.90;69.20
35678;DHT22;21791;42.828;74.582;2022-12-11T05:17:00;-2.00;73.40
35678;DHT22;21791;42.828;74.582;2022-12-11T05:19:27;-2.40;74.80
35678;DHT22;21791;42.828;74.582;2022-12-11T05:21:54;-2.00;76.60
35678;DHT22;21791;42.828;74.582;2022-12-11T05:24:21;-1.40;76.20
35678;DHT22;21791;42.828;74.582;2022-12-11T05:26:50;-1.00;74.80
35678;DHT22;21791;42.828;74.582;2022-12-11T05:29:17;-0.90;73.10
35678;DHT22;21791;42.828;74.582;2022-12-11T05:31:44;-0.20;73.00
35678;DHT22;21791;42.828;74.582;2022-12-11T05:34:10;-0.70;72.60
35678;DHT22;21791;42.828;74.582;2022-12-11T05:36:37;0.10;69.60
35678;DHT22;21791;42.828;74.582;2022-12-11T05:39:03;0.70;67.40
35678;DHT22;21791;42.828;74.582;2022-12-11T05:41:30;-0.20;69.10
35678;DHT22;21791;42.828;74.582;2022-12-11T05:43:57;-0.50;69.90
35678;DHT22;21791;42.828;74.582;2022-12-11T05:46:26;-1.30;72.00
35678;DHT22;21791;42.828;74.582;2022-12-11T05:48:56;-1.70;74.40
35678;DHT22;21791;42.828;74.582;2022-12-11T05:51:23;-1.70;76.30
35678;DHT22;21791;42.828;74.582;2022-12-11T05:53:52;-1.40;75.30
35678;DHT22;21791;42.828;74.582;2022-12-11T05:56:24;-0.70;76.10
35678;DHT22;21791;42.828;74.582;2022-12-11T05:58:52;-0.20;74.50
35678;DHT22;21791;42.828;74.582;2022-12-11T06:01:28;0.00;71.00
35678;DHT22;21791;42.828;74.582;2022-12-11T06:03:56;-0.40;71.70
35678;DHT22;21791;42.828;74.582;2022-12-11T06:06:23;-0.90;74.30
35678;DHT22;21791;42.828;74.582;2022-12-11T06:08:50;-1.80;77.40
35678;DHT22;21791;42.828;74.582;2022-12-11T06:11:18;-2.90;83.30
35678;DHT22;21791;42.828;74.582;2022-12-11T06:13:45;-2.80;87.00
35678;DHT22;21791;42.828;74.582;2022-12-11T06:16:11;-2.80;86.30
35678;DHT22;21791;42.828;74.582;2022-12-11T06:18:41;-2.80;88.60
35678;DHT22;21791;42.828;74.582;2022-12-11T06:21:22;-2.50;88.60
35678;DHT22;21791;42.828;74.582;2022-12-11T06:23:51;-2.70;90.00
35678;DHT22;21791;42.828;74.582;2022-12-11T06:26:20;-2.70;91.20
35678;DHT22;21791;42.828;74.582;2022-12-11T06:28:47;-2.70;91.50
35678;DHT22;21791;42.828;74.582;2022-12-11T06:31:14;-2.70;91.50
35678;DHT22;21791;42.828;74.582;2022-12-11T06:33:41;-2.90;92.40
35678;DHT22;21791;42.828;74.582;2022-12-11T06:36:11;-3.00;92.60
35678;DHT22;21791;42.828;74.582;2022-12-11T06:38:39;-3.10;93.60
35678;DHT22;21791;42.828;74.582;2022-12-11T06:41:07;-2.80;94.60
35678;DHT22;21791;42.828;74.582;2022-12-11T06:43:36;-2.70;93.70
35678;DHT22;21791;42.828;74.582;2022-12-11T06:46:07;-2.70;93.30
35678;DHT22;21791;42.828;74.582;2022-12-11T06:48:34;-2.20;93.00
35678;DHT22;21791;42.828;74.582;2022-12-11T06:51:10;-2.10;93.50
35678;DHT22;21791;42.828;74.582;2022-12-11T06:53:39;-1.90;92.40
35678;DHT22;21791;42.828;74.582;2022-12-11T06:56:13;-1.40;91.60
35678;DHT22;21791;42.828;74.582;2022-12-11T06:58:41;-1.20;91.60
35678;DHT22;21791;42.828;74.582;2022-12-11T07:01:27;-1.20;89.80
35678;DHT22;21791;42.828;74.582;2022-12-11T07:03:58;-1.50;90.00
35678;DHT22;21791;42.828;74.582;2022-12-11T07:06:26;-2.10;90.60
35678;DHT22;21791;42.828;74.582;2022-12-11T07:08:53;-2.10;91.90
35678;DHT22;21791;42.828;74.582;2022-12-11T07:11:21;-2.20;92.00
35678;DHT22;21791;42.828;74.582;2022-12-11T07:13:48;-2.20;92.90
35678;DHT22;21791;42.828;74.582;2022-12-11T07:16:16;-2.10;92.00
35678;DHT22;21791;42.828;74.582;2022-12-11T07:18:46;-2.10;92.40
35678;DHT22;21791;42.828;74.582;2022-12-11T07:21:14;-2.10;91.40
35678;DHT22;21791;42.828;74.582;2022-12-11T07:23:41;-2.00;91.90
35678;DHT22;21791;42.828;74.582;2022-12-11T07:26:14;-2.00;91.00
35678;DHT22;21791;42.828;74.582;2022-12-11T07:28:41;-1.90;91.10
35678;DHT22;21791;42.828;74.582;2022-12-11T07:31:13;-2.20;90.00
35678;DHT22;21791;42.828;74.582;2022-12-11T07:33:41;-2.00;90.60
35678;DHT22;21791;42.828;74.582;2022-12-11T07:36:10;-1.70;91.20
35678;DHT22;21791;42.828;74.582;2022-12-11T07:38:37;-2.00;91.00
35678;DHT22;21791;42.828;74.582;2022-12-11T07:41:06;-2.20;93.10
35678;DHT22;21791;42.828;74.582;2022-12-11T07:43:34;-2.00;92.80
35678;DHT22;21791;42.828;74.582;2022-12-11T07:46:02;-2.00;93.00
35678;DHT22;21791;42.828;74.582;2022-12-11T07:48:30;-1.90;92.60
35678;DHT22;21791;42.828;74.582;2022-12-11T07:51:07;-1.90;92.70
35678;DHT22;21791;42.828;74.582;2022-12-11T07:53:36;-1.90;93.20
35678;DHT22;21791;42.828;74.582;2022-12-11T07:56:03;-2.20;93.20
35678;DHT22;21791;42.828;74.582;2022-12-11T07:58:29;-2.10;93.80
35678;DHT22;21791;42.828;74.582;2022-12-11T08:00:56;-2.30;94.00
35678;DHT22;21791;42.828;74.582;2022-12-11T08:03:23;-2.20;93.30
35678;DHT22;21791;42.828;74.582;2022-12-11T08:05:51;-2.00;94.20
35678;DHT22;21791;42.828;74.582;2022-12-11T08:08:18;-1.90;93.60
35678;DHT22;21791;42.828;74.582;2022-12-11T08:10:45;-1.80;93.60
35678;DHT22;21791;42.828;74.582;2022-12-11T08:13:12;-1.60;93.50
35678;DHT22;21791;42.828;74.582;2022-12-11T08:15:38;-1.40;92.30
35678;DHT22;21791;42.828;74.582;2022-12-11T08:18:05;-1.30;92.30
35678;DHT22;21791;42.828;74.582;2022-12-11T08:20:32;-1.00;91.20
35678;DHT22;21791;42.828;74.582;2022-12-11T08:22:58;-1.00;91.60
35678;DHT22;21791;42.828;74.582;2022-12-11T08:25:25;-1.60;91.10
35678;DHT22;21791;42.828;74.582;2022-12-11T08:27:51;-1.60;90.70
35678;DHT22;21791;42.828;74.582;2022-12-11T08:30:18;-1.50;91.90
35678;DHT22;21791;42.828;74.582;2022-12-11T08:32:44;-1.30;91.20
35678;DHT22;21791;42.828;74.582;2022-12-11T08:35:11;-1.70;85.20
35678;DHT22;21791;42.828;74.582;2022-12-11T08:37:38;-1.80;86.20
35678;DHT22;21791;42.828;74.582;2022-12-11T08:40:06;-1.50;88.30
35678;DHT22;21791;42.828;74.582;2022-12-11T08:42:33;-1.50;86.80
35678;DHT22;21791;42.828;74.582;2022-12-11T08:44:59;-1.50;86.00
35678;DHT22;21791;42.828;74.582;2022-12-11T08:47:27;-1.20;84.60
35678;DHT22;21791;42.828;74.582;2022-12-11T08:49:54;-1.50;82.80
35678;DHT22;21791;42.828;74.582;2022-12-11T08:52:22;-1.70;84.30
35678;DHT22;21791;42.828;74.582;2022-12-11T08:54:49;-1.50;86.20
35678;DHT22;21791;42.828;74.582;2022-12-11T08:57:15;-1.40;84.30
35678;DHT22;21791;42.828;74.582;2022-12-11T08:59:42;-1.60;85.20
35678;DHT22;21791;42.828;74.582;2022-12-11T09:02:11;-1.70;86.20
35678;DHT22;21791;42.828;74.582;2022-12-11T09:04:38;-1.90;86.20
35678;DHT22;21791;42.828;74.582;2022-12-11T09:07:05;-1.50;86.20
35678;DHT22;21791;42.828;74.582;2022-12-11T09:09:32;-1.60;86.40
35678;DHT22;21791;42.828;74.582;2022-12-11T09:11:58;-1.80;87.80
35678;DHT22;21791;42.828;74.582;2022-12-11T09:14:26;-1.60;87.90
35678;DHT22;21791;42.828;74.582;2022-12-11T09:16:53;-1.20;85.90
35678;DHT22;21791;42.828;74.582;2022-12-11T09:19:19;-1.40;86.30
35678;DHT22;21791;42.828;74.582;2022-12-11T09:21:46;-1.40;89.80
35678;DHT22;21791;42.828;74.582;2022-12-11T09:24:13;-1.20;90.30
35678;DHT22;21791;42.828;74.582;2022-12-11T09:26:40;-1.20;89.10
35678;DHT22;21791;42.828;74.582;2022-12-11T09:29:07;-1.40;88.20
35678;DHT22;21791;42.828;74.582;2022-12-11T09:31:36;-1.80;90.00
35678;DHT22;21791;42.828;74.582;2022-12-11T09:34:07;-2.00;90.90
35678;DHT22;21791;42.828;74.582;2022-12-11T09:36:41;-1.80;91.20
35678;DHT22;21791;42.828;74.582;2022-12-11T09:39:11;-2.10;91.30
35678;DHT22;21791;42.828;74.582;2022-12-11T09:46:54;-2.80;93.70
35678;DHT22;21791;42.828;74.582;2022-12-11T09:50:00;-3.10;94.70
35678;DHT22;21791;42.828;74.582;2022-12-11T09:52:36;-3.20;95.80
35678;DHT22;21791;42.828;74.582;2022-12-11T09:55:15;-3.50;96.80
35678;DHT22;21791;42.828;74.582;2022-12-11T09:57:53;-3.60;98.10
35678;DHT22;21791;42.828;74.582;2022-12-11T10:00:28;-3.60;98.80
35678;DHT22;21791;42.828;74.582;2022-12-11T10:03:13;-3.70;98.90
35678;DHT22;21791;42.828;74.582;2022-12-11T10:05:54;-3.90;99.80
35678;DHT22;21791;42.828;74.582;2022-12-11T10:08:37;-3.80;99.90
35678;DHT22;21791;42.828;74.582;2022-12-11T10:16:49;-5.10;99.90
35678;DHT22;21791;42.828;74.582;2022-12-11T10:19:29;-5.40;99.90
35678;DHT22;21791;42.828;74.582;2022-12-11T10:21:57;-5.50;99.90
35678;DHT22;21791;42.828;74.582;2022-12-11T10:24:53;-5.60;99.90
35678;DHT22;21791;42.828;74.582;2022-12-11T10:27:24;-5.60;99.90
35678;DHT22;21791;42.828;74.582;2022-12-11T10:33:22;-5.90;99.90
35678;DHT22;21791;42.828;74.582;2022-12-11T10:35:56;-6.00;99.90
35678;DHT22;21791;42.828;74.582;2022-12-11T10:41:12;-6.40;99.90
35678;DHT22;21791;42.828;74.582;2022-12-11T10:43:42;-6.50;99.90
35678;DHT22;21791;42.828;74.582;2022-12-11T10:46:22;-6.50;99.90
35678;DHT22;21791;42.828;74.582;2022-12-11T10:48:52;-6.50;99.90
35678;DHT22;21791;42.828;74.582;2022-12-11T10:51:23;-6.60;99.90
35678;DHT22;21791;42.828;74.582;2022-12-11T10:53:57;-6.70;99.90
35678;DHT22;21791;42.828;74.582;2022-12-11T10:56:27;-6.70;99.90
35678;DHT22;21791;42.828;74.582;2022-12-11T10:58:55;-6.70;99.90
35678;DHT22;21791;42.828;74.582;2022-12-11T11:01:26;-6.80;99.90
35678;DHT22;21791;42.828;74.582;2022-12-11T11:06:25;-6.90;99.90
35678;DHT22;21791;42.828;74.582;2022-12-11T11:08:54;-7.00;99.90
35678;DHT22;21791;42.828;74.582;2022-12-11T11:13:49;-7.10;99.90
35678;DHT22;21791;42.828;74.582;2022-12-11T11:16:17;-7.30;99.90
35678;DHT22;21791;42.828;74.582;2022-12-11T11:19:03;-7.40;99.90
35678;DHT22;21791;42.828;74.582;2022-12-11T11:21:33;-7.60;99.90
35678;DHT22;21791;42.828;74.582;2022-12-11T11:23:59;-7.70;99.90
35678;DHT22;21791;42.828;74.582;2022-12-11T11:26:30;-7.70;99.90
35678;DHT22;21791;42.828;74.582;2022-12-11T11:28:58;-7.70;99.90
35678;DHT22;21791;42.828;74.582;2022-12-11T11:31:32;-7.90;99.90
35678;DHT22;21791;42.828;74.582;2022-12-11T11:34:04;-8.10;99.90
35678;DHT22;21791;42.828;74.582;2022-12-11T11:36:35;-8.20;99.90
35678;DHT22;21791;42.828;74.582;2022-12-11T11:39:11;-8.20;99.90
35678;DHT22;21791;42.828;74.582;2022-12-11T11:44:37;-8.40;99.90
35678;DHT22;21791;42.828;74.582;2022-12-11T11:55:37;-8.40;99.90
35678;DHT22;21791;42.828;74.582;2022-12-11T11:58:19;-8.50;99.90
35678;DHT22;21791;42.828;74.582;2022-12-11T12:00:53;-8.70;99.90
35678;DHT22;21791;42.828;74.582;2022-12-11T12:03:22;-8.90;99.90
35678;DHT22;21791;42.828;74.582;2022-12-11T12:06:15;-9.00;99.90
35678;DHT22;21791;42.828;74.582;2022-12-11T12:14:17;-9.40;99.90
35678;DHT22;21791;42.828;74.582;2022-12-11T12:17:04;-9.50;99.90
35678;DHT22;21791;42.828;74.582;2022-12-11T12:22:29;-9.60;99.90
35678;DHT22;21791;42.828;74.582;2022-12-11T12:25:24;-9.80;99.90
35678;DHT22;21791;42.828;74.582;2022-12-11T12:36:26;-10.00;99.90
35678;DHT22;21791;42.828;74.582;2022-12-11T12:39:23;-10.20;99.90
35678;DHT22;21791;42.828;74.582;2022-12-11T12:44:29;-10.30;99.90
35678;DHT22;21791;42.828;74.582;2022-12-11T12:47:04;-10.30;99.90
35678;DHT22;21791;42.828;74.582;2022-12-11T12:49:47;-10.30;99.90
35678;DHT22;21791;42.828;74.582;2022-12-11T12:54:46;-10.10;99.90
35678;DHT22;21791;42.828;74.582;2022-12-11T12:57:36;-10.10;99.90
35678;DHT22;21791;42.828;74.582;2022-12-11T13:00:05;-10.10;99.90
35678;DHT22;21791;42.828;74.582;2022-12-11T13:02:48;-10.10;99.90
35678;DHT22;21791;42.828;74.582;2022-12-11T13:05:32;-10.10;99.90
35678;DHT22;21791;42.828;74.582;2022-12-11T13:08:04;-10.10;99.90
35678;DHT22;21791;42.828;74.582;2022-12-11T13:13:00;-10.00;99.90
35678;DHT22;21791;42.828;74.582;2022-12-11T13:17:59;-10.10;99.90
35678;DHT22;21791;42.828;74.582;2022-12-11T13:20:29;-10.10;99.90
35678;DHT22;21791;42.828;74.582;2022-12-11T13:23:27;-10.10;99.90
35678;DHT22;21791;42.828;74.582;2022-12-11T13:26:25;-10.10;99.90
35678;DHT22;21791;42.828;74.582;2022-12-11T13:28:55;-10.30;99.90
35678;DHT22;21791;42.828;74.582;2022-12-11T13:31:28;-10.30;99.90
35678;DHT22;21791;42.828;74.582;2022-12-11T13:34:06;-10.30;99.90
35678;DHT22;21791;42.828;74.582;2022-12-11T13:36:36;-10.40;99.90
35678;DHT22;21791;42.828;74.582;2022-12-11T13:39:13;-10.60;99.90
35678;DHT22;21791;42.828;74.582;2022-12-11T13:41:46;-10.60;99.90
35678;DHT22;21791;42.828;74.582;2022-12-11T13:44:28;-10.50;99.90
35678;DHT22;21791;42.828;74.582;2022-12-11T13:47:00;-10.60;99.90
35678;DHT22;21791;42.828;74.582;2022-12-11T13:49:34;-10.70;99.90
35678;DHT22;21791;42.828;74.582;2022-12-11T13:52:02;-10.70;99.90
35678;DHT22;21791;42.828;74.582;2022-12-11T13:54:35;-10.70;99.90
35678;DHT22;21791;42.828;74.582;2022-12-11T13:57:23;-10.70;99.90
35678;DHT22;21791;42.828;74.582;2022-12-11T13:59:56;-10.60;99.90
35678;DHT22;21791;42.828;74.582;2022-12-11T14:02:42;-10.50;99.90
35678;DHT22;21791;42.828;74.582;2022-12-11T14:05:10;-10.40;99.90
35678;DHT22;21791;42.828;74.582;2022-12-11T14:07:41;-10.30;99.90
35678;DHT22;21791;42.828;74.582;2022-12-11T14:10:26;-10.30;99.90
35678;DHT22;21791;42.828;74.582;2022-12-11T14:13:04;-10.30;99.90
35678;DHT22;21791;42.828;74.582;2022-12-11T14:15:32;-10.40;99.90
35678;DHT22;21791;42.828;74.582;2022-12-11T14:18:01;-10.40;99.90
35678;DHT22;21791;42.828;74.582;2022-12-11T14:20:31;-10.40;99.90
35678;DHT22;21791;42.828;74.582;2022-12-11T14:23:06;-10.40;99.90
35678;DHT22;21791;42.828;74.582;2022-12-11T14:25:34;-10.30;99.90
35678;DHT22;21791;42.828;74.582;2022-12-11T14:28:01;-10.40;99.90
35678;DHT22;21791;42.828;74.582;2022-12-11T14:30:31;-10.20;99.90
35678;DHT22;21791;42.828;74.582;2022-12-11T14:33:01;-10.40;99.90
35678;DHT22;21791;42.828;74.582;2022-12-11T14:35:32;-10.40;99.90
35678;DHT22;21791;42.828;74.582;2022-12-11T14:38:03;-10.50;99.90
35678;DHT22;21791;42.828;74.582;2022-12-11T14:40:39;-10.50;99.90
35678;DHT22;21791;42.828;74.582;2022-12-11T14:43:11;-10.50;99.90
35678;DHT22;21791;42.828;74.582;2022-12-11T14:45:43;-10.50;99.90
35678;DHT22;21791;42.828;74.582;2022-12-11T14:48:24;-10.60;99.90
35678;DHT22;21791;42.828;74.582;2022-12-11T14:50:54;-10.80;99.90
35678;DHT22;21791;42.828;74.582;2022-12-11T14:53:28;-10.70;99.90
35678;DHT22;21791;42.828;74.582;2022-12-11T14:56:04;-10.70;99.90
35678;DHT22;21791;42.828;74.582;2022-12-11T14:58:39;-10.80;99.90
35678;DHT22;21791;42.828;74.582;2022-12-11T15:01:27;-10.80;99.90
35678;DHT22;21791;42.828;74.582;2022-12-11T15:06:45;-10.70;99.90
35678;DHT22;21791;42.828;74.582;2022-12-11T15:12:14;-10.20;99.90
35678;DHT22;21791;42.828;74.582;2022-12-11T15:14:59;-10.10;99.90
35678;DHT22;21791;42.828;74.582;2022-12-11T15:17:28;-10.30;99.90
35678;DHT22;21791;42.828;74.582;2022-12-11T15:20:08;-10.10;99.90
35678;DHT22;21791;42.828;74.582;2022-12-11T15:22:37;-10.20;99.90
35678;DHT22;21791;42.828;74.582;2022-12-11T15:25:20;-10.30;99.90
35678;DHT22;21791;42.828;74.582;2022-12-11T15:27:56;-10.30;99.90
35678;DHT22;21791;42.828;74.582;2022-12-11T15:30:28;-10.40;99.90
35678;DHT22;21791;42.828;74.582;2022-12-11T15:35:34;-10.80;99.90
35678;DHT22;21791;42.828;74.582;2022-12-11T15:38:02;-10.90;99.90
35678;DHT22;21791;42.828;74.582;2022-12-11T15:40:29;-11.10;99.90
35678;DHT22;21791;42.828;74.582;2022-12-11T15:42:56;-11.20;99.90
35678;DHT22;21791;42.828;74.582;2022-12-11T15:45:27;-11.40;99.90
35678;DHT22;21791;42.828;74.582;2022-12-11T15:47:55;-11.40;99.90
35678;DHT22;21791;42.828;74.582;2022-12-11T15:50:27;-11.40;99.90
35678;DHT22;21791;42.828;74.582;2022-12-11T15:52:55;-11.50;99.90
35678;DHT22;21791;42.828;74.582;2022-12-11T15:55:25;-11.50;99.90
35678;DHT22;21791;42.828;74.582;2022-12-11T15:57:55;-11.60;99.90
35678;DHT22;21791;42.828;74.582;2022-12-11T16:00:23;-11.70;99.90
35678;DHT22;21791;42.828;74.582;2022-12-11T16:02:53;-11.70;99.90
35678;DHT22;21791;42.828;74.582;2022-12-11T16:05:20;-11.70;99.90
35678;DHT22;21791;42.828;74.582;2022-12-11T16:07:48;-11.60;99.90
35678;DHT22;21791;42.828;74.582;2022-12-11T16:10:20;-11.50;99.90
35678;DHT22;21791;42.828;74.582;2022-12-11T16:12:51;-11.50;99.90
35678;DHT22;21791;42.828;74.582;2022-12-11T16:15:17;-11.60;99.90
35678;DHT22;21791;42.828;74.582;2022-12-11T16:17:44;-11.70;99.90
35678;DHT22;21791;42.828;74.582;2022-12-11T16:20:11;-11.70;99.90
35678;DHT22;21791;42.828;74.582;2022-12-11T16:22:38;-11.70;99.90
35678;DHT22;21791;42.828;74.582;2022-12-11T16:25:05;-11.70;99.90
35678;DHT22;21791;42.828;74.582;2022-12-11T16:27:32;-11.70;99.90
35678;DHT22;21791;42.828;74.582;2022-12-11T16:29:59;-11.90;99.90
35678;DHT22;21791;42.828;74.582;2022-12-11T16:32:25;-11.90;99.90
35678;DHT22;21791;42.828;74.582;2022-12-11T16:34:52;-11.90;99.90
35678;DHT22;21791;42.828;74.582;2022-12-11T16:37:19;-11.90;99.90
35678;DHT22;21791;42.828;74.582;2022-12-11T16:39:46;-12.00;99.90
35678;DHT22;21791;42.828;74.582;2022-12-11T16:42:13;-12.00;99.90
35678;DHT22;21791;42.828;74.582;2022-12-11T16:44:40;-12.00;99.90
35678;DHT22;21791;42.828;74.582;2022-12-11T16:47:07;-12.00;99.90
35678;DHT22;21791;42.828;74.582;2022-12-11T16:49:35;-12.00;99.90
35678;DHT22;21791;42.828;74.582;2022-12-11T16:52:02;-12.10;99.90
35678;DHT22;21791;42.828;74.582;2022-12-11T16:54:29;-12.10;99.90
35678;DHT22;21791;42.828;74.582;2022-12-11T16:56:56;-12.10;99.90
35678;DHT22;21791;42.828;74.582;2022-12-11T16:59:23;-12.30;99.90
35678;DHT22;21791;42.828;74.582;2022-12-11T17:01:50;-12.10;99.90